sensor_id;sensor_type;location;lat;lon;timestamp;noise_LAeq;noise_LA_min;noise_LA_max;noise_LA01;noise_LA95
66888;Laerm;67239;51.680;5.976;2023-07-31T00:00:30;61.84;41.26;81.43;;
66888;Laerm;67239;51.680;5.976;2023-07-31T00:02:57;50.61;43.43;61.44;;
66888;Laerm;67239;51.680;5.976;2023-07-31T00:05:25;47.79;41.82;61.59;;
66888;Laerm;67239;51.680;5.976;2023-07-31T00:07:52;45.68;40.42;55.58;;
66888;Laerm;67239;51.680;5.976;2023-07-31T00:10:21;47.50;41.67;64.59;;
66888;Laerm;67239;51.680;5.976;2023-07-31T00:12:48;48.12;42.01;60.44;;
66888;Laerm;67239;51.680;5.976;2023-07-31T00:15:16;55.07;42.65;71.67;;
66888;Laerm;67239;51.680;5.976;2023-07-31T00:17:43;48.49;41.31;66.70;;
66888;Laerm;67239;51.680;5.976;2023-07-31T00:20:11;46.71;40.59;57.21;;
66888;Laerm;67239;51.680;5.976;2023-07-31T00:22:38;48.55;41.73;57.94;;
66888;Laerm;67239;51.680;5.976;2023-07-31T00:25:05;46.61;42.05;51.85;;
66888;Laerm;67239;51.680;5.976;2023-07-31T00:27:35;48.51;42.75;56.12;;
66888;Laerm;67239;51.680;5.976;2023-07-31T00:30:03;50.86;42.57;57.79;;
66888;Laerm;67239;51.680;5.976;2023-07-31T00:32:32;48.89;43.34;59.30;;
66888;Laerm;67239;51.680;5.976;2023-07-31T00:34:59;62.07;42.13;77.34;;
66888;Laerm;67239;51.680;5.976;2023-07-31T00:37:26;46.45;42.05;57.71;;
66888;Laerm;67239;51.680;5.976;2023-07-31T00:39:55;48.25;43.07;54.56;;
66888;Laerm;67239;51.680;5.976;2023-07-31T00:42:24;47.84;40.46;55.93;;
66888;Laerm;67239;51.680;5.976;2023-07-31T00:44:51;58.39;42.88;76.46;;
66888;Laerm;67239;51.680;5.976;2023-07-31T00:47:18;51.85;44.84;60.40;;
66888;Laerm;67239;51.680;5.976;2023-07-31T00:49:46;48.12;43.16;55.00;;
66888;Laerm;67239;51.680;5.976;2023-07-31T00:52:13;49.19;41.61;56.25;;
66888;Laerm;67239;51.680;5.976;2023-07-31T00:54:40;56.08;42.71;72.26;;
66888;Laerm;67239;51.680;5.976;2023-07-31T00:57:07;50.95;43.84;64.90;;
66888;Laerm;67239;51.680;5.976;2023-07-31T00:59:35;50.93;42.93;60.23;;
66888;Laerm;67239;51.680;5.976;2023-07-31T01:02:03;48.45;42.46;56.58;;
66888;Laerm;67239;51.680;5.976;2023-07-31T01:04:31;57.17;41.44;76.01;;
66888;Laerm;67239;51.680;5.976;2023-07-31T01:07:14;46.79;41.14;61.22;;
66888;Laerm;67239;51.680;5.976;2023-07-31T01:10:12;48.21;40.67;67.14;;
66888;Laerm;67239;51.680;5.976;2023-07-31T01:12:45;49.33;43.59;54.46;;
66888;Laerm;67239;51.680;5.976;2023-07-31T01:15:13;48.37;43.56;54.66;;
66888;Laerm;67239;51.680;5.976;2023-07-31T01:17:42;47.70;41.99;53.16;;
66888;Laerm;67239;51.680;5.976;2023-07-31T01:20:15;47.33;40.87;53.31;;
66888;Laerm;67239;51.680;5.976;2023-07-31T01:26:21;46.67;41.88;52.47;;
66888;Laerm;67239;51.680;5.976;2023-07-31T01:32:02;45.49;39.53;55.10;;
66888;Laerm;67239;51.680;5.976;2023-07-31T01:34:32;43.58;39.37;48.76;;
66888;Laerm;67239;51.680;5.976;2023-07-31T01:36:59;43.62;39.39;49.26;;
66888;Laerm;67239;51.680;5.976;2023-07-31T01:39:26;44.07;40.29;47.68;;
66888;Laerm;67239;51.680;5.976;2023-07-31T01:41:53;59.79;40.27;79.52;;
66888;Laerm;67239;51.680;5.976;2023-07-31T01:44:20;49.10;41.65;66.77;;
66888;Laerm;67239;51.680;5.976;2023-07-31T01:46:47;50.15;44.15;65.82;;
66888;Laerm;67239;51.680;5.976;2023-07-31T01:49:15;49.09;43.04;58.23;;
66888;Laerm;67239;51.680;5.976;2023-07-31T01:51:42;59.72;41.84;78.42;;
66888;Laerm;67239;51.680;5.976;2023-07-31T01:54:09;58.40;40.70;76.86;;
66888;Laerm;67239;51.680;5.976;2023-07-31T01:56:37;46.61;41.07;51.47;;
66888;Laerm;67239;51.680;5.976;2023-07-31T01:59:05;48.16;42.88;55.03;;
66888;Laerm;67239;51.680;5.976;2023-07-31T02:01:32;46.46;41.16;55.08;;
66888;Laerm;67239;51.680;5.976;2023-07-31T02:04:01;49.88;42.37;62.78;;
66888;Laerm;67239;51.680;5.976;2023-07-31T02:06:29;50.14;44.60;56.01;;
66888;Laerm;67239;51.680;5.976;2023-07-31T02:08:56;45.60;40.15;52.63;;
66888;Laerm;67239;51.680;5.976;2023-07-31T02:11:23;46.10;41.89;51.86;;
66888;Laerm;67239;51.680;5.976;2023-07-31T02:13:50;50.68;45.56;56.13;;
66888;Laerm;67239;51.680;5.976;2023-07-31T02:16:18;49.00;44.10;57.17;;
66888;Laerm;67239;51.680;5.976;2023-07-31T02:18:45;47.94;43.05;52.00;;
66888;Laerm;67239;51.680;5.976;2023-07-31T02:21:12;57.72;41.27;75.69;;
66888;Laerm;67239;51.680;5.976;2023-07-31T02:23:40;61.67;46.37;79.23;;
66888;Laerm;67239;51.680;5.976;2023-07-31T02:26:07;48.36;42.53;53.75;;
66888;Laerm;67239;51.680;5.976;2023-07-31T02:28:34;58.66;43.57;77.52;;
66888;Laerm;67239;51.680;5.976;2023-07-31T02:31:01;57.77;43.86;76.48;;
66888;Laerm;67239;51.680;5.976;2023-07-31T02:33:28;51.53;46.40;55.51;;
66888;Laerm;67239;51.680;5.976;2023-07-31T02:35:55;49.28;44.22;58.47;;
66888;Laerm;67239;51.680;5.976;2023-07-31T02:38:23;50.81;43.96;66.48;;
66888;Laerm;67239;51.680;5.976;2023-07-31T02:40:50;51.82;45.50;62.82;;
66888;Laerm;67239;51.680;5.976;2023-07-31T02:43:17;48.39;41.74;66.48;;
66888;Laerm;67239;51.680;5.976;2023-07-31T02:45:44;57.38;45.13;73.83;;
66888;Laerm;67239;51.680;5.976;2023-07-31T02:48:11;45.62;41.33;52.28;;
66888;Laerm;67239;51.680;5.976;2023-07-31T02:50:38;47.26;41.98;54.54;;
66888;Laerm;67239;51.680;5.976;2023-07-31T02:53:05;48.95;41.80;57.03;;
66888;Laerm;67239;51.680;5.976;2023-07-31T02:55:33;48.96;44.05;53.01;;
66888;Laerm;67239;51.680;5.976;2023-07-31T02:58:00;55.65;42.59;71.68;;
66888;Laerm;67239;51.680;5.976;2023-07-31T03:00:30;61.76;43.09;75.97;;
66888;Laerm;67239;51.680;5.976;2023-07-31T03:02:57;45.45;40.01;50.87;;
66888;Laerm;67239;51.680;5.976;2023-07-31T03:05:24;56.39;41.92;73.79;;
66888;Laerm;67239;51.680;5.976;2023-07-31T03:07:51;47.27;42.34;56.87;;
66888;Laerm;67239;51.680;5.976;2023-07-31T03:10:18;63.92;44.15;82.74;;
66888;Laerm;67239;51.680;5.976;2023-07-31T03:12:48;62.81;41.18;81.56;;
66888;Laerm;67239;51.680;5.976;2023-07-31T03:15:15;58.99;41.95;77.14;;
66888;Laerm;67239;51.680;5.976;2023-07-31T03:17:43;47.42;42.12;51.84;;
66888;Laerm;67239;51.680;5.976;2023-07-31T03:20:10;60.12;41.19;73.46;;
66888;Laerm;67239;51.680;5.976;2023-07-31T03:22:38;62.13;40.80;78.08;;
66888;Laerm;67239;51.680;5.976;2023-07-31T03:25:05;62.99;41.77;78.43;;
66888;Laerm;67239;51.680;5.976;2023-07-31T03:27:33;45.21;41.54;49.76;;
66888;Laerm;67239;51.680;5.976;2023-07-31T03:30:00;61.78;41.20;76.90;;
66888;Laerm;67239;51.680;5.976;2023-07-31T03:32:29;62.43;41.41;76.97;;
66888;Laerm;67239;51.680;5.976;2023-07-31T03:34:57;63.50;41.03;78.74;;
66888;Laerm;67239;51.680;5.976;2023-07-31T03:37:24;59.81;41.66;76.43;;
66888;Laerm;67239;51.680;5.976;2023-07-31T03:39:53;63.70;42.90;77.16;;
66888;Laerm;67239;51.680;5.976;2023-07-31T03:42:20;64.11;44.17;78.26;;
66888;Laerm;67239;51.680;5.976;2023-07-31T03:44:50;61.22;42.49;76.26;;
66888;Laerm;67239;51.680;5.976;2023-07-31T03:47:17;64.26;42.32;79.22;;
66888;Laerm;67239;51.680;5.976;2023-07-31T03:49:44;67.70;44.56;85.14;;
66888;Laerm;67239;51.680;5.976;2023-07-31T03:52:11;66.17;42.31;78.28;;
66888;Laerm;67239;51.680;5.976;2023-07-31T03:54:38;56.48;41.84;74.65;;
66888;Laerm;67239;51.680;5.976;2023-07-31T03:57:06;61.62;43.38;77.18;;
66888;Laerm;67239;51.680;5.976;2023-07-31T03:59:33;67.52;46.35;81.43;;
66888;Laerm;67239;51.680;5.976;2023-07-31T04:02:00;57.04;45.16;67.96;;
66888;Laerm;67239;51.680;5.976;2023-07-31T04:04:27;63.59;47.08;79.18;;
66888;Laerm;67239;51.680;5.976;2023-07-31T04:06:54;63.66;46.42;78.65;;
66888;Laerm;67239;51.680;5.976;2023-07-31T04:09:22;64.94;48.08;78.02;;
66888;Laerm;67239;51.680;5.976;2023-07-31T04:11:49;63.94;47.75;78.31;;
66888;Laerm;67239;51.680;5.976;2023-07-31T04:14:16;66.21;51.06;82.39;;
66888;Laerm;67239;51.680;5.976;2023-07-31T04:16:43;60.69;51.35;72.46;;
66888;Laerm;67239;51.680;5.976;2023-07-31T04:19:10;61.26;49.99;77.02;;
66888;Laerm;67239;51.680;5.976;2023-07-31T04:21:37;65.37;50.73;78.93;;
66888;Laerm;67239;51.680;5.976;2023-07-31T04:24:05;62.89;48.61;79.88;;
66888;Laerm;67239;51.680;5.976;2023-07-31T04:26:32;60.00;48.99;72.24;;
66888;Laerm;67239;51.680;5.976;2023-07-31T04:28:59;60.98;47.88;72.52;;
66888;Laerm;67239;51.680;5.976;2023-07-31T04:31:26;66.65;49.33;79.87;;
66888;Laerm;67239;51.680;5.976;2023-07-31T04:33:53;67.27;50.35;81.44;;
66888;Laerm;67239;51.680;5.976;2023-07-31T04:36:20;67.51;46.10;88.23;;
66888;Laerm;67239;51.680;5.976;2023-07-31T04:38:47;63.95;47.96;77.82;;
66888;Laerm;67239;51.680;5.976;2023-07-31T04:41:14;61.98;45.14;76.46;;
66888;Laerm;67239;51.680;5.976;2023-07-31T04:43:41;65.62;49.16;79.61;;
66888;Laerm;67239;51.680;5.976;2023-07-31T04:46:08;67.30;47.12;86.39;;
66888;Laerm;67239;51.680;5.976;2023-07-31T04:48:35;62.79;47.01;73.86;;
66888;Laerm;67239;51.680;5.976;2023-07-31T04:51:03;66.05;46.94;79.71;;
66888;Laerm;67239;51.680;5.976;2023-07-31T04:53:30;69.07;45.73;85.99;;
66888;Laerm;67239;51.680;5.976;2023-07-31T04:56:00;64.13;45.82;77.02;;
66888;Laerm;67239;51.680;5.976;2023-07-31T04:58:29;64.22;44.67;78.92;;
66888;Laerm;67239;51.680;5.976;2023-07-31T05:00:57;63.89;44.49;78.91;;
66888;Laerm;67239;51.680;5.976;2023-07-31T05:03:24;67.28;45.62;81.27;;
66888;Laerm;67239;51.680;5.976;2023-07-31T05:05:51;63.99;43.57;78.70;;
66888;Laerm;67239;51.680;5.976;2023-07-31T05:08:18;60.93;43.25;75.62;;
66888;Laerm;67239;51.680;5.976;2023-07-31T05:10:45;66.52;44.56;80.96;;
66888;Laerm;67239;51.680;5.976;2023-07-31T05:13:12;65.11;46.82;77.92;;
66888;Laerm;67239;51.680;5.976;2023-07-31T05:15:41;66.94;45.93;81.69;;
66888;Laerm;67239;51.680;5.976;2023-07-31T05:18:09;66.89;46.29;78.63;;
66888;Laerm;67239;51.680;5.976;2023-07-31T05:20:36;65.57;47.61;81.79;;
66888;Laerm;67239;51.680;5.976;2023-07-31T05:23:03;62.87;44.32;75.30;;
66888;Laerm;67239;51.680;5.976;2023-07-31T05:25:30;68.44;45.32;80.42;;
66888;Laerm;67239;51.680;5.976;2023-07-31T05:27:57;67.75;45.04;83.91;;
66888;Laerm;67239;51.680;5.976;2023-07-31T05:30:25;64.63;44.53;78.93;;
66888;Laerm;67239;51.680;5.976;2023-07-31T05:32:52;67.92;44.32;83.61;;
66888;Laerm;67239;51.680;5.976;2023-07-31T05:35:20;62.15;43.84;78.49;;
66888;Laerm;67239;51.680;5.976;2023-07-31T05:37:47;65.68;45.57;83.18;;
66888;Laerm;67239;51.680;5.976;2023-07-31T05:40:14;68.79;45.29;80.60;;
66888;Laerm;67239;51.680;5.976;2023-07-31T05:42:43;62.91;47.13;78.21;;
66888;Laerm;67239;51.680;5.976;2023-07-31T05:45:10;68.63;47.76;80.59;;
66888;Laerm;67239;51.680;5.976;2023-07-31T05:47:37;68.22;50.01;80.21;;
66888;Laerm;67239;51.680;5.976;2023-07-31T05:50:04;64.84;46.92;79.00;;
66888;Laerm;67239;51.680;5.976;2023-07-31T05:52:35;69.94;49.37;83.40;;
66888;Laerm;67239;51.680;5.976;2023-07-31T05:55:04;68.91;46.06;81.17;;
66888;Laerm;67239;51.680;5.976;2023-07-31T05:57:31;61.01;44.57;75.31;;
66888;Laerm;67239;51.680;5.976;2023-07-31T05:59:58;63.59;43.31;80.04;;
66888;Laerm;67239;51.680;5.976;2023-07-31T06:02:25;67.13;44.06;78.83;;
66888;Laerm;67239;51.680;5.976;2023-07-31T06:04:55;67.74;44.37;80.58;;
66888;Laerm;67239;51.680;5.976;2023-07-31T06:07:24;69.72;49.18;82.26;;
66888;Laerm;67239;51.680;5.976;2023-07-31T06:09:51;68.22;51.12;82.37;;
66888;Laerm;67239;51.680;5.976;2023-07-31T06:12:21;65.77;52.05;79.48;;
66888;Laerm;67239;51.680;5.976;2023-07-31T06:14:48;58.22;48.98;71.26;;
66888;Laerm;67239;51.680;5.976;2023-07-31T06:17:15;70.02;50.24;82.64;;
66888;Laerm;67239;51.680;5.976;2023-07-31T06:19:42;65.51;51.95;77.83;;
66888;Laerm;67239;51.680;5.976;2023-07-31T06:22:09;67.60;50.87;81.36;;
66888;Laerm;67239;51.680;5.976;2023-07-31T06:24:36;67.58;52.90;79.92;;
66888;Laerm;67239;51.680;5.976;2023-07-31T06:27:04;72.48;54.72;88.21;;
66888;Laerm;67239;51.680;5.976;2023-07-31T06:29:32;70.06;50.08;80.91;;
66888;Laerm;67239;51.680;5.976;2023-07-31T06:32:00;68.09;49.26;79.40;;
66888;Laerm;67239;51.680;5.976;2023-07-31T06:34:30;60.22;45.66;78.47;;
66888;Laerm;67239;51.680;5.976;2023-07-31T06:36:57;66.07;49.99;81.87;;
66888;Laerm;67239;51.680;5.976;2023-07-31T06:39:24;67.99;51.26;81.62;;
66888;Laerm;67239;51.680;5.976;2023-07-31T06:41:51;70.81;49.27;83.20;;
66888;Laerm;67239;51.680;5.976;2023-07-31T06:44:19;67.46;48.97;79.69;;
66888;Laerm;67239;51.680;5.976;2023-07-31T06:46:46;72.56;51.81;85.53;;
66888;Laerm;67239;51.680;5.976;2023-07-31T06:49:16;63.30;46.82;79.01;;
66888;Laerm;67239;51.680;5.976;2023-07-31T06:51:44;66.37;48.27;79.11;;
66888;Laerm;67239;51.680;5.976;2023-07-31T06:54:11;71.78;49.92;84.78;;
66888;Laerm;67239;51.680;5.976;2023-07-31T06:56:38;70.13;50.39;81.56;;
66888;Laerm;67239;51.680;5.976;2023-07-31T06:59:07;70.55;53.29;83.20;;
66888;Laerm;67239;51.680;5.976;2023-07-31T07:01:35;70.94;49.49;83.46;;
66888;Laerm;67239;51.680;5.976;2023-07-31T07:04:02;69.44;49.05;82.54;;
66888;Laerm;67239;51.680;5.976;2023-07-31T07:06:29;70.57;47.70;85.67;;
66888;Laerm;67239;51.680;5.976;2023-07-31T07:08:56;65.25;45.79;80.27;;
66888;Laerm;67239;51.680;5.976;2023-07-31T07:11:23;64.14;46.71;79.04;;
66888;Laerm;67239;51.680;5.976;2023-07-31T07:13:51;69.25;48.03;80.74;;
66888;Laerm;67239;51.680;5.976;2023-07-31T07:16:19;69.31;46.54;82.57;;
66888;Laerm;67239;51.680;5.976;2023-07-31T07:18:46;69.17;51.18;82.74;;
66888;Laerm;67239;51.680;5.976;2023-07-31T07:21:29;68.00;49.21;86.21;;
66888;Laerm;67239;51.680;5.976;2023-07-31T07:23:57;68.66;48.32;82.59;;
66888;Laerm;67239;51.680;5.976;2023-07-31T07:26:24;71.84;50.95;86.35;;
66888;Laerm;67239;51.680;5.976;2023-07-31T07:28:51;72.28;50.38;83.88;;
66888;Laerm;67239;51.680;5.976;2023-07-31T07:31:18;66.65;48.66;80.83;;
66888;Laerm;67239;51.680;5.976;2023-07-31T07:33:46;72.39;50.76;84.35;;
66888;Laerm;67239;51.680;5.976;2023-07-31T07:36:13;69.52;50.97;84.63;;
66888;Laerm;67239;51.680;5.976;2023-07-31T07:38:40;66.44;48.84;82.39;;
66888;Laerm;67239;51.680;5.976;2023-07-31T07:41:08;66.00;47.47;79.25;;
66888;Laerm;67239;51.680;5.976;2023-07-31T07:43:35;69.84;51.62;81.50;;
66888;Laerm;67239;51.680;5.976;2023-07-31T07:46:02;66.92;47.58;81.44;;
66888;Laerm;67239;51.680;5.976;2023-07-31T07:48:29;71.88;49.32;85.18;;
66888;Laerm;67239;51.680;5.976;2023-07-31T07:50:57;71.37;46.63;84.36;;
66888;Laerm;67239;51.680;5.976;2023-07-31T07:53:25;68.63;46.95;83.41;;
66888;Laerm;67239;51.680;5.976;2023-07-31T07:55:52;68.41;47.81;79.19;;
66888;Laerm;67239;51.680;5.976;2023-07-31T07:58:19;69.60;50.97;84.34;;
66888;Laerm;67239;51.680;5.976;2023-07-31T08:00:52;68.55;45.88;82.64;;
66888;Laerm;67239;51.680;5.976;2023-07-31T08:03:31;68.38;46.85;81.27;;
66888;Laerm;67239;51.680;5.976;2023-07-31T08:06:10;69.35;46.94;80.56;;
66888;Laerm;67239;51.680;5.976;2023-07-31T08:08:38;65.99;49.44;79.36;;
66888;Laerm;67239;51.680;5.976;2023-07-31T08:11:06;69.18;49.56;85.72;;
66888;Laerm;67239;51.680;5.976;2023-07-31T08:13:34;70.42;47.58;85.71;;
66888;Laerm;67239;51.680;5.976;2023-07-31T08:16:04;64.82;45.66;78.89;;
66888;Laerm;67239;51.680;5.976;2023-07-31T08:18:39;62.89;46.43;76.81;;
66888;Laerm;67239;51.680;5.976;2023-07-31T08:21:08;69.39;51.06;80.32;;
66888;Laerm;67239;51.680;5.976;2023-07-31T08:23:37;69.73;48.74;82.68;;
66888;Laerm;67239;51.680;5.976;2023-07-31T08:26:04;71.60;49.65;82.70;;
66888;Laerm;67239;51.680;5.976;2023-07-31T08:28:31;69.82;51.05;80.26;;
66888;Laerm;67239;51.680;5.976;2023-07-31T08:31:07;69.54;47.88;81.99;;
66888;Laerm;67239;51.680;5.976;2023-07-31T08:33:40;69.08;46.70;83.63;;
66888;Laerm;67239;51.680;5.976;2023-07-31T08:36:11;68.33;46.70;82.30;;
66888;Laerm;67239;51.680;5.976;2023-07-31T08:38:38;64.88;48.20;75.61;;
66888;Laerm;67239;51.680;5.976;2023-07-31T08:41:13;69.41;46.17;82.21;;
66888;Laerm;67239;51.680;5.976;2023-07-31T08:43:50;68.85;46.09;85.65;;
66888;Laerm;67239;51.680;5.976;2023-07-31T08:46:21;70.60;47.32;84.04;;
66888;Laerm;67239;51.680;5.976;2023-07-31T08:48:51;69.71;51.86;80.35;;
66888;Laerm;67239;51.680;5.976;2023-07-31T08:51:22;69.66;48.99;84.55;;
66888;Laerm;67239;51.680;5.976;2023-07-31T08:53:50;70.72;48.91;83.16;;
66888;Laerm;67239;51.680;5.976;2023-07-31T08:56:17;70.10;49.82;85.07;;
66888;Laerm;67239;51.680;5.976;2023-07-31T08:58:46;69.91;52.04;81.60;;
66888;Laerm;67239;51.680;5.976;2023-07-31T09:01:15;68.73;47.63;85.13;;
66888;Laerm;67239;51.680;5.976;2023-07-31T09:03:47;68.66;50.39;80.47;;
66888;Laerm;67239;51.680;5.976;2023-07-31T09:06:22;64.33;46.80;78.39;;
66888;Laerm;67239;51.680;5.976;2023-07-31T09:08:54;69.96;47.58;83.89;;
66888;Laerm;67239;51.680;5.976;2023-07-31T09:11:28;62.73;47.04;77.52;;
66888;Laerm;67239;51.680;5.976;2023-07-31T09:13:57;67.85;47.42;83.15;;
66888;Laerm;67239;51.680;5.976;2023-07-31T09:16:28;70.79;49.28;83.48;;
66888;Laerm;67239;51.680;5.976;2023-07-31T09:19:03;69.42;49.32;80.90;;
66888;Laerm;67239;51.680;5.976;2023-07-31T09:21:31;67.72;47.49;81.35;;
66888;Laerm;67239;51.680;5.976;2023-07-31T09:23:59;69.40;48.55;82.67;;
66888;Laerm;67239;51.680;5.976;2023-07-31T09:26:34;68.30;49.21;81.34;;
66888;Laerm;67239;51.680;5.976;2023-07-31T09:29:18;70.42;47.46;82.43;;
66888;Laerm;67239;51.680;5.976;2023-07-31T09:31:50;67.24;50.00;79.27;;
66888;Laerm;67239;51.680;5.976;2023-07-31T09:34:18;67.09;48.79;78.24;;
66888;Laerm;67239;51.680;5.976;2023-07-31T09:36:51;70.92;51.36;83.05;;
66888;Laerm;67239;51.680;5.976;2023-07-31T09:39:24;69.86;49.08;82.55;;
66888;Laerm;67239;51.680;5.976;2023-07-31T09:41:55;71.15;48.66;84.29;;
66888;Laerm;67239;51.680;5.976;2023-07-31T09:44:41;68.34;46.47;83.00;;
66888;Laerm;67239;51.680;5.976;2023-07-31T09:47:22;70.65;51.13;83.06;;
66888;Laerm;67239;51.680;5.976;2023-07-31T09:49:55;66.71;47.11;81.45;;
66888;Laerm;67239;51.680;5.976;2023-07-31T09:52:22;67.31;45.40;79.79;;
66888;Laerm;67239;51.680;5.976;2023-07-31T09:54:49;68.03;49.06;83.11;;
66888;Laerm;67239;51.680;5.976;2023-07-31T09:57:22;70.03;47.40;85.41;;
66888;Laerm;67239;51.680;5.976;2023-07-31T09:59:52;68.48;44.49;82.42;;
66888;Laerm;67239;51.680;5.976;2023-07-31T10:02:22;67.78;48.14;80.73;;
66888;Laerm;67239;51.680;5.976;2023-07-31T10:04:50;69.97;50.57;81.64;;
66888;Laerm;67239;51.680;5.976;2023-07-31T10:07:20;68.52;51.55;83.76;;
66888;Laerm;67239;51.680;5.976;2023-07-31T10:09:53;67.85;48.09;82.66;;
66888;Laerm;67239;51.680;5.976;2023-07-31T10:12:26;66.78;46.72;78.34;;
66888;Laerm;67239;51.680;5.976;2023-07-31T10:15:00;65.99;46.70;79.38;;
66888;Laerm;67239;51.680;5.976;2023-07-31T10:17:29;67.31;49.17;79.32;;
66888;Laerm;67239;51.680;5.976;2023-07-31T10:19:58;65.87;45.87;79.69;;
66888;Laerm;67239;51.680;5.976;2023-07-31T10:22:31;67.51;45.36;80.15;;
66888;Laerm;67239;51.680;5.976;2023-07-31T10:25:00;68.02;50.28;78.28;;
66888;Laerm;67239;51.680;5.976;2023-07-31T10:27:28;77.40;50.08;94.65;;
66888;Laerm;67239;51.680;5.976;2023-07-31T10:29:58;69.06;47.32;82.96;;
66888;Laerm;67239;51.680;5.976;2023-07-31T10:32:28;69.15;46.13;82.17;;
66888;Laerm;67239;51.680;5.976;2023-07-31T10:34:57;66.23;49.13;78.36;;
66888;Laerm;67239;51.680;5.976;2023-07-31T10:37:38;70.17;48.36;79.75;;
66888;Laerm;67239;51.680;5.976;2023-07-31T10:40:09;66.18;46.70;81.45;;
66888;Laerm;67239;51.680;5.976;2023-07-31T10:42:54;66.58;45.93;80.02;;
66888;Laerm;67239;51.680;5.976;2023-07-31T10:45:35;71.81;49.16;91.80;;
66888;Laerm;67239;51.680;5.976;2023-07-31T10:48:16;66.05;48.31;79.23;;
66888;Laerm;67239;51.680;5.976;2023-07-31T10:50:55;69.11;49.22;82.43;;
66888;Laerm;67239;51.680;5.976;2023-07-31T10:53:29;68.36;45.98;83.32;;
66888;Laerm;67239;51.680;5.976;2023-07-31T10:56:11;65.45;47.70;78.34;;
66888;Laerm;67239;51.680;5.976;2023-07-31T10:58:44;68.08;44.65;80.27;;
66888;Laerm;67239;51.680;5.976;2023-07-31T11:01:13;70.89;47.76;90.39;;
66888;Laerm;67239;51.680;5.976;2023-07-31T11:03:49;68.90;50.58;80.88;;
66888;Laerm;67239;51.680;5.976;2023-07-31T11:06:19;67.78;49.05;82.75;;
66888;Laerm;67239;51.680;5.976;2023-07-31T11:08:51;67.08;46.21;80.38;;
66888;Laerm;67239;51.680;5.976;2023-07-31T11:11:20;67.38;46.51;82.46;;
66888;Laerm;67239;51.680;5.976;2023-07-31T11:13:53;64.75;46.96;79.32;;
66888;Laerm;67239;51.680;5.976;2023-07-31T11:16:23;69.72;48.08;82.94;;
66888;Laerm;67239;51.680;5.976;2023-07-31T11:18:53;69.88;53.29;80.54;;
66888;Laerm;67239;51.680;5.976;2023-07-31T11:21:24;68.75;46.17;82.14;;
66888;Laerm;67239;51.680;5.976;2023-07-31T11:23:56;67.67;46.12;78.77;;
66888;Laerm;67239;51.680;5.976;2023-07-31T11:26:27;68.12;48.19;80.00;;
66888;Laerm;67239;51.680;5.976;2023-07-31T11:28:56;69.69;48.94;80.59;;
66888;Laerm;67239;51.680;5.976;2023-07-31T11:31:26;67.18;47.61;81.28;;
66888;Laerm;67239;51.680;5.976;2023-07-31T11:34:05;70.06;46.50;85.85;;
66888;Laerm;67239;51.680;5.976;2023-07-31T11:36:34;65.41;46.29;82.45;;
66888;Laerm;67239;51.680;5.976;2023-07-31T11:39:09;68.46;51.26;78.56;;
66888;Laerm;67239;51.680;5.976;2023-07-31T11:41:42;70.11;48.46;87.23;;
66888;Laerm;67239;51.680;5.976;2023-07-31T11:44:10;69.86;46.81;81.52;;
66888;Laerm;67239;51.680;5.976;2023-07-31T11:46:56;68.43;48.70;81.48;;
66888;Laerm;67239;51.680;5.976;2023-07-31T11:49:24;67.21;45.81;79.33;;
66888;Laerm;67239;51.680;5.976;2023-07-31T11:51:54;66.50;49.06;77.51;;
66888;Laerm;67239;51.680;5.976;2023-07-31T11:54:21;69.91;47.43;81.36;;
66888;Laerm;67239;51.680;5.976;2023-07-31T11:56:48;64.73;48.98;79.37;;
66888;Laerm;67239;51.680;5.976;2023-07-31T11:59:18;65.60;49.67;79.90;;
66888;Laerm;67239;51.680;5.976;2023-07-31T12:01:46;68.41;49.79;80.62;;
66888;Laerm;67239;51.680;5.976;2023-07-31T12:04:13;71.42;52.83;84.85;;
66888;Laerm;67239;51.680;5.976;2023-07-31T12:06:40;70.58;47.95;82.20;;
66888;Laerm;67239;51.680;5.976;2023-07-31T12:09:08;67.68;48.20;81.90;;
66888;Laerm;67239;51.680;5.976;2023-07-31T12:11:46;67.62;48.06;79.43;;
66888;Laerm;67239;51.680;5.976;2023-07-31T12:14:29;68.54;48.47;80.81;;
66888;Laerm;67239;51.680;5.976;2023-07-31T12:17:01;66.97;46.08;81.11;;
66888;Laerm;67239;51.680;5.976;2023-07-31T12:19:31;64.34;47.62;77.74;;
66888;Laerm;67239;51.680;5.976;2023-07-31T12:22:02;68.79;49.95;79.68;;
66888;Laerm;67239;51.680;5.976;2023-07-31T12:24:29;61.97;45.62;75.60;;
66888;Laerm;67239;51.680;5.976;2023-07-31T12:26:57;68.67;45.94;83.51;;
66888;Laerm;67239;51.680;5.976;2023-07-31T12:29:34;67.35;49.12;80.46;;
66888;Laerm;67239;51.680;5.976;2023-07-31T12:32:24;68.02;49.96;82.14;;
66888;Laerm;67239;51.680;5.976;2023-07-31T12:34:52;64.91;48.54;77.74;;
66888;Laerm;67239;51.680;5.976;2023-07-31T12:37:21;68.76;50.68;80.69;;
66888;Laerm;67239;51.680;5.976;2023-07-31T12:39:48;68.59;51.57;81.64;;
66888;Laerm;67239;51.680;5.976;2023-07-31T12:42:17;68.51;53.51;79.83;;
66888;Laerm;67239;51.680;5.976;2023-07-31T12:44:45;66.38;49.78;95.64;;
66888;Laerm;67239;51.680;5.976;2023-07-31T12:47:12;66.00;48.26;77.42;;
66888;Laerm;67239;51.680;5.976;2023-07-31T12:49:42;67.57;48.61;82.97;;
66888;Laerm;67239;51.680;5.976;2023-07-31T12:52:09;67.77;50.01;82.65;;
66888;Laerm;67239;51.680;5.976;2023-07-31T12:54:36;66.37;45.95;79.42;;
66888;Laerm;67239;51.680;5.976;2023-07-31T12:57:05;68.68;49.31;81.84;;
66888;Laerm;67239;51.680;5.976;2023-07-31T12:59:32;66.07;47.57;78.06;;
66888;Laerm;67239;51.680;5.976;2023-07-31T13:02:00;69.12;47.95;84.14;;
66888;Laerm;67239;51.680;5.976;2023-07-31T13:04:27;69.01;52.79;80.80;;
66888;Laerm;67239;51.680;5.976;2023-07-31T13:06:55;68.04;46.08;81.08;;
66888;Laerm;67239;51.680;5.976;2023-07-31T13:09:22;69.10;46.81;82.03;;
66888;Laerm;67239;51.680;5.976;2023-07-31T13:11:50;67.55;44.38;81.40;;
66888;Laerm;67239;51.680;5.976;2023-07-31T13:14:17;67.55;47.31;79.55;;
66888;Laerm;67239;51.680;5.976;2023-07-31T13:16:44;69.57;47.87;85.48;;
66888;Laerm;67239;51.680;5.976;2023-07-31T13:19:12;67.42;46.79;82.52;;
66888;Laerm;67239;51.680;5.976;2023-07-31T13:21:39;64.27;45.43;79.85;;
66888;Laerm;67239;51.680;5.976;2023-07-31T13:24:07;66.13;45.86;78.36;;
66888;Laerm;67239;51.680;5.976;2023-07-31T13:26:34;69.86;51.88;86.57;;
66888;Laerm;67239;51.680;5.976;2023-07-31T13:29:03;67.37;49.29;80.67;;
66888;Laerm;67239;51.680;5.976;2023-07-31T13:31:30;68.96;47.11;82.96;;
66888;Laerm;67239;51.680;5.976;2023-07-31T13:33:59;65.85;46.51;80.04;;
66888;Laerm;67239;51.680;5.976;2023-07-31T13:36:26;67.51;46.93;79.46;;
66888;Laerm;67239;51.680;5.976;2023-07-31T13:38:54;66.16;46.94;77.53;;
66888;Laerm;67239;51.680;5.976;2023-07-31T13:41:21;71.10;46.24;85.27;;
66888;Laerm;67239;51.680;5.976;2023-07-31T13:43:48;67.94;44.60;86.57;;
66888;Laerm;67239;51.680;5.976;2023-07-31T13:46:16;65.16;44.64;80.70;;
66888;Laerm;67239;51.680;5.976;2023-07-31T13:48:43;65.98;45.18;78.67;;
66888;Laerm;67239;51.680;5.976;2023-07-31T13:51:10;69.42;48.18;81.24;;
66888;Laerm;67239;51.680;5.976;2023-07-31T13:53:37;65.43;44.26;78.66;;
66888;Laerm;67239;51.680;5.976;2023-07-31T13:56:04;63.59;43.14;78.42;;
66888;Laerm;67239;51.680;5.976;2023-07-31T13:58:33;67.63;45.53;80.82;;
66888;Laerm;67239;51.680;5.976;2023-07-31T14:01:01;66.56;45.20;79.84;;